Portada
METAR-TAF:

METAR-TAF

Aeroports :

Loei, Tailàndia

latitud: 17-27N, longitud: 101-44E, altitud: 253 m

Observació

L'informe es va fer fa 58 minuts, a les 05:00 UTC
Vent 5 kt amb direcció variable
Temperatura 30°C
Humitat 46%
Pressió 1018 hPa
Visibilitat: 6000 m

METAR: VTUL 210500Z VRB05KT 6000 NSC 30/17 Q1018 NOSIG

Hora: 12:58 (05:58 UTC)

Pronòstic

L'informe es va fer fa 58 minuts, a les 05:00 UTC
Pronòstic vàlid del 21 a les 06 UTC al 22 a les 06 UTC
Vent 3 kt del Sud-Est
Visibilitat: 8000 m
Escasses núvols a una alçada de 3000 ft
Evolucionant progressivament
l' 21 a les 21 UTC al 21 a les 23 UTC
Visibilitat: 4000 m
boirina
Evolucionant progressivament
l' 22 a les 04 UTC al 22 a les 06 UTC
Visibilitat: 8000 m

TAF: VTUL 210500Z 2106/2206 14003KT 8000 FEW030 BECMG 2121/2123 4000 BR BECMG 2204/2206 8000 NSW

Observacions i pronòstics meteorològics de més de 4000 aeroports (METAR i TAF).

Les estacions disponibles són els punts grocs i vermells al mapa.

Posi el ratolí al punt desitjat per veure el nom de l'estació.

Feu clic per veure les observacions i els pronòstics meteorològics.

Per canviar el mapa: feu clic els botons verds amb una creu de color negre per apropar; al botó verd amb un guió per allunyar la imatge; o en les fletxes verdes per a mapes adjacents.


METAR-TAF: